TimeEST,TemperatureF,Dew PointF,Humidity,Sea Level PressureIn,VisibilityMPH,Wind Direction,Wind SpeedMPH,Gust SpeedMPH,PrecipitationIn,Events,Conditions,WindDirDegrees,DateUTC
12:15 AM,35.6,32.0,87,29.74,10.0,SE,15.0,21.9,N/A,,Overcast,140,2012-12-18 05:15:00
12:35 AM,35.6,32.0,87,29.73,10.0,SE,12.7,21.9,N/A,,Overcast,130,2012-12-18 05:35:00
12:55 AM,35.6,33.8,93,29.72,10.0,SE,11.5,-,N/A,,Overcast,140,2012-12-18 05:55:00
1:35 AM,35.6,33.8,93,29.70,10.0,SSE,4.6,-,N/A,,Overcast,150,2012-12-18 06:35:00
1:55 AM,35.6,33.8,93,29.69,10.0,ESE,5.8,-,N/A,,Overcast,120,2012-12-18 06:55:00
2:15 AM,37.4,33.8,87,29.68,10.0,ESE,6.9,-,N/A,,Overcast,120,2012-12-18 07:15:00
3:35 AM,37.4,33.8,87,29.60,10.0,SE,15.0,21.9,N/A,,Overcast,130,2012-12-18 08:35:00
3:55 AM,37.4,33.8,87,29.61,10.0,South,5.8,-,N/A,,Overcast,170,2012-12-18 08:55:00
4:55 AM,37.4,33.8,87,29.60,9.0,SE,12.7,16.1,0.03,,Overcast,130,2012-12-18 09:55:00
5:35 AM,37.4,33.8,87,29.58,10.0,SE,10.4,-,0.04,,Overcast,140,2012-12-18 10:35:00
5:55 AM,35.6,33.8,93,29.56,10.0,ESE,15.0,21.9,0.06,,Overcast,120,2012-12-18 10:55:00
6:15 AM,37.4,33.8,87,29.55,10.0,ESE,23.0,31.1,0.01,,Overcast,120,2012-12-18 11:15:00
6:35 AM,37.4,35.6,93,29.54,10.0,ESE,21.9,29.9,0.01,,Overcast,120,2012-12-18 11:35:00
7:15 AM,37.4,33.8,87,29.53,10.0,ESE,19.6,26.5,N/A,,Overcast,120,2012-12-18 12:15:00
7:55 AM,37.4,33.8,87,29.51,10.0,ESE,20.7,28.8,N/A,,Overcast,120,2012-12-18 12:55:00
8:35 AM,37.4,35.6,93,29.51,8.0,ESE,20.7,31.1,0.04,,Overcast,120,2012-12-18 13:35:00
8:55 AM,37.4,35.6,93,29.51,10.0,SE,18.4,23.0,0.07,,Overcast,130,2012-12-18 13:55:00
9:35 AM,37.4,35.6,93,29.51,10.0,SE,12.7,-,0.01,,Overcast,130,2012-12-18 14:35:00
9:55 AM,37.4,35.6,93,29.51,10.0,SE,9.2,19.6,0.01,,Overcast,140,2012-12-18 14:55:00
10:15 AM,39.2,35.6,87,29.50,10.0,SE,16.1,23.0,N/A,,Overcast,140,2012-12-18 15:15:00
10:35 AM,39.2,35.6,87,29.50,10.0,SE,5.8,16.1,N/A,,Overcast,140,2012-12-18 15:35:00
11:15 AM,41.0,37.4,87,29.48,10.0,Calm,Calm,-,N/A,,Mostly Cloudy,0,2012-12-18 16:15:00
11:55 AM,41.0,37.4,87,29.47,10.0,SSW,4.6,-,N/A,,Overcast,200,2012-12-18 16:55:00
12:15 PM,39.2,37.4,93,29.46,9.0,SW,8.1,-,N/A,,Overcast,220,2012-12-18 17:15:00
12:35 PM,41.0,35.6,81,29.45,10.0,SW,4.6,-,N/A,,Overcast,230,2012-12-18 17:35:00
12:55 PM,41.0,37.4,87,29.44,10.0,SE,10.4,16.1,N/A,,Overcast,140,2012-12-18 17:55:00
1:15 PM,41.0,37.4,87,29.44,10.0,SSE,3.5,-,N/A,,Overcast,160,2012-12-18 18:15:00
1:55 PM,41.0,37.4,87,29.43,10.0,SSE,4.6,-,N/A,,Overcast,150,2012-12-18 18:55:00
2:15 PM,41.0,37.4,87,29.44,10.0,Calm,Calm,-,N/A,,Overcast,0,2012-12-18 19:15:00
2:55 PM,39.2,37.4,93,29.44,10.0,SSE,4.6,-,N/A,,Overcast,150,2012-12-18 19:55:00
3:15 PM,39.2,37.4,93,29.44,10.0,SE,8.1,-,N/A,,Overcast,130,2012-12-18 20:15:00
3:35 PM,39.2,37.4,93,29.44,10.0,SSE,5.8,-,N/A,,Overcast,160,2012-12-18 20:35:00
3:55 PM,39.2,37.4,93,29.45,10.0,SE,4.6,-,N/A,,Overcast,140,2012-12-18 20:55:00
4:15 PM,39.2,37.4,93,29.45,10.0,ESE,5.8,-,N/A,,Overcast,120,2012-12-18 21:15:00
4:35 PM,39.2,37.4,93,29.45,4.0,ESE,5.8,-,N/A,,Overcast,120,2012-12-18 21:35:00
5:15 PM,39.2,37.4,93,29.45,4.0,ESE,4.6,-,N/A,,Overcast,110,2012-12-18 22:15:00
6:15 PM,37.4,35.6,93,29.46,9.0,Calm,Calm,-,N/A,,Overcast,0,2012-12-18 23:15:00
6:35 PM,37.4,37.4,100,29.46,10.0,Calm,Calm,-,N/A,,Overcast,0,2012-12-18 23:35:00
6:55 PM,37.4,37.4,100,29.46,10.0,ESE,3.5,-,N/A,,Overcast,110,2012-12-18 23:55:00
7:15 PM,37.4,35.6,93,29.46,10.0,ESE,4.6,-,N/A,,Overcast,120,2012-12-19 00:15:00
7:35 PM,37.4,37.4,100,29.47,10.0,SE,4.6,-,N/A,,Overcast,130,2012-12-19 00:35:00
7:55 PM,37.4,35.6,93,29.47,7.0,SE,3.5,-,0.01,,Overcast,130,2012-12-19 00:55:00
8:15 PM,37.4,35.6,93,29.47,3.0,Calm,Calm,-,N/A,,Overcast,0,2012-12-19 01:15:00
8:35 PM,37.4,37.4,100,29.47,2.0,Calm,Calm,-,N/A,,Overcast,0,2012-12-19 01:35:00
8:55 PM,37.4,37.4,100,29.48,2.0,Calm,Calm,-,N/A,,Overcast,0,2012-12-19 01:55:00
9:15 PM,37.4,35.6,93,29.48,1.5,Calm,Calm,-,0.01,,Overcast,0,2012-12-19 02:15:00
9:55 PM,37.4,37.4,100,29.48,1.5,North,5.8,-,0.01,,Overcast,360,2012-12-19 02:55:00
10:35 PM,37.4,37.4,100,29.49,6.0,North,4.6,-,0.01,,Overcast,360,2012-12-19 03:35:00
11:15 PM,37.4,37.4,100,29.49,5.0,North,3.5,-,N/A,,Overcast,360,2012-12-19 04:15:00
11:35 PM,37.4,37.4,100,29.49,8.0,North,4.6,-,N/A,,Overcast,360,2012-12-19 04:35:00
11:55 PM,37.4,35.6,93,29.49,9.0,Calm,Calm,-,N/A,,Overcast,0,2012-12-19 04:55:00